Spirit Of Vi — CFL2070 — position and weather

sailwx.info

Track history (hours):
 
Tides and Currents Weather Stations Pressure Air Temp Water Temp Dewpoint Dewpoint Depression Visibility Wind Speed Wind Dir Waves Ship Positions

Spirit Of Vi

Last reported at 2017-Jul-21 02:30 UTC. Time now 2017-Jul-21 02:28 UTC.
Position N 48°46' W 123°22'.

Length 168 m; draft 5 m.

Type: Ship. MMSI: 316001269.

Date/timePositionNaut miles runAvg speedWind from/ knotsBaromVisibWave heightAir tempDewpointWater temp
2017-Jul-21 02:30N 48°46' W 123°22'5 9.2
2017-Jul-21 02:01N 48°41' W 123°25'1 1.5
2017-Jul-21 01:31N 48°42' W 123°24'918.2
2017-Jul-21 01:00N 48°51' W 123°21'918.0
2017-Jul-21 00:30N 48°58' W 123°13'4 8.2
2017-Jul-21 00:00N 49°00' W 123°08'2 4.1
2017-Jul-20 23:30N 48°59' W 123°10'1417.0
2017-Jul-20 22:41N 48°47' W 123°21'419.5
2017-Jul-20 22:31N 48°44' W 123°24'3 5.3
2017-Jul-20 22:00N 48°41' W 123°25'2 4.9
2017-Jul-20 21:30N 48°42' W 123°21'917.8
2017-Jul-20 20:59N 48°52' W 123°21'611.3
2017-Jul-20 20:30N 48°56' W 123°15'613.1
2017-Jul-20 20:01N 49°00' W 123°08'0 0.5
2017-Jul-20 19:30N 49°00' W 123°08'1019.2
2017-Jul-20 19:00N 48°53' W 123°18'815.9
2017-Jul-20 18:31N 48°45' W 123°21'5 9.2
2017-Jul-20 18:00N 48°41' W 123°25'0 0.1
2017-Jul-20 17:30N 48°41' W 123°25'815.3
2017-Jul-20 17:00N 48°49' W 123°21'714.8
2017-Jul-20 16:30N 48°55' W 123°16'714.4
2017-Jul-20 16:00N 49°00' W 123°08'0 0.1
2017-Jul-20 15:30N 49°00' W 123°08'916.6
2017-Jul-20 15:00N 48°54' W 123°16'1413.8
2017-Jul-20 14:01N 48°41' W 123°25'0 0.0
2017-Jul-20 13:31N 48°41' W 123°25'0 0.0
2017-Jul-20 12:59N 48°41' W 123°25'0 0.0
2017-Jul-20 12:29N 48°41' W 123°25'0 0.0
2017-Jul-20 11:59N 48°41' W 123°25'0 0.0
2017-Jul-20 11:29N 48°41' W 123°25'0 0.0
2017-Jul-20 10:59N 48°41' W 123°25'0 0.0
2017-Jul-20 10:29N 48°41' W 123°25'0 0.0
2017-Jul-20 09:59N 48°41' W 123°25'0 0.0
2017-Jul-20 09:29N 48°41' W 123°25'0 0.0
2017-Jul-20 08:56N 48°41' W 123°25'0 0.0
2017-Jul-20 08:29N 48°41' W 123°25'0 0.0
2017-Jul-20 07:56N 48°41' W 123°25'0 0.0
2017-Jul-20 07:29N 48°41' W 123°25'0 0.0
2017-Jul-20 06:59N 48°41' W 123°25'0 0.0
2017-Jul-20 06:29N 48°41' W 123°25'0 0.0
2017-Jul-20 05:59N 48°41' W 123°25'0 0.0
2017-Jul-20 05:30N 48°41' W 123°25'814.8
2017-Jul-20 04:59N 48°49' W 123°21'715.3
2017-Jul-20 04:30N 48°55' W 123°16'714.7
2017-Jul-20 04:00N 49°00' W 123°08'0 0.2
2017-Jul-20 03:30N 49°00' W 123°08'815.3
2017-Jul-20 03:00N 48°54' W 123°16'715.0
2017-Jul-20 02:30N 48°48' W 123°21'713.6
2017-Jul-20 02:00N 48°41' W 123°25'0 0.1
2017-Jul-20 01:30N 48°41' W 123°25'714.7
2017-Jul-20 01:00N 48°48' W 123°21'816.7
2017-Jul-20 00:30N 48°56' W 123°15'712.9
2017-Jul-20 00:00N 49°00' W 123°08'0 0.0
2017-Jul-19 23:30N 49°00' W 123°08'816.5
2017-Jul-19 23:01N 48°54' W 123°16'815.8
2017-Jul-19 22:30N 48°47' W 123°21'612.3
2017-Jul-19 22:00N 48°41' W 123°25'1 1.1
2017-Jul-19 21:31N 48°42' W 123°24'816.7
2017-Jul-19 21:00N 48°50' W 123°21'714.0
2017-Jul-19 20:30N 48°56' W 123°15'712.5
2017-Jul-19 19:58N 49°00' W 123°08'0 0.1
2017-Jul-19 19:31N 49°00' W 123°08'917.3
2017-Jul-19 18:59N 48°53' W 123°17'613.5
2017-Jul-19 18:30N 48°47' W 123°21'713.3
2017-Jul-19 18:00N 48°41' W 123°25'0 0.3
2017-Jul-19 17:31N 48°41' W 123°25'815.7
2017-Jul-19 16:59N 48°49' W 123°21'713.9
2017-Jul-19 16:27N 48°56' W 123°15'714.4
2017-Jul-19 16:00N 49°00' W 123°08'0 0.2
2017-Jul-19 15:30N 49°00' W 123°08'815.6
2017-Jul-19 14:59N 48°54' W 123°16'714.5
2017-Jul-19 14:30N 48°48' W 123°21'714.0
2017-Jul-19 14:00N 48°41' W 123°25'0 0.0
2017-Jul-19 13:31N 48°41' W 123°25'0 0.0
2017-Jul-19 13:01N 48°41' W 123°25'0 0.0
2017-Jul-19 12:31N 48°41' W 123°25'0 0.0
2017-Jul-19 11:59N 48°41' W 123°25'0 0.0
2017-Jul-19 11:29N 48°41' W 123°25'0 0.0
2017-Jul-19 10:59N 48°41' W 123°25'0 0.0
2017-Jul-19 10:29N 48°41' W 123°25'0 0.0
2017-Jul-19 09:59N 48°41' W 123°25'0 0.0
2017-Jul-19 09:29N 48°41' W 123°25'0 0.0
2017-Jul-19 08:59N 48°41' W 123°25'0 0.0
2017-Jul-19 08:29N 48°41' W 123°25'0 0.0
2017-Jul-19 07:56N 48°41' W 123°25'0 0.0
2017-Jul-19 07:29N 48°41' W 123°25'0 0.0
2017-Jul-19 06:59N 48°41' W 123°25'0 0.0
2017-Jul-19 06:29N 48°41' W 123°25'0 0.0
2017-Jul-19 05:56N 48°41' W 123°25'0 0.5
2017-Jul-19 05:31N 48°41' W 123°24'814.7
2017-Jul-19 04:59N 48°49' W 123°21'714.6
2017-Jul-19 04:30N 48°55' W 123°16'714.9
2017-Jul-19 04:01N 49°00' W 123°08'0 0.2
2017-Jul-19 03:30N 49°00' W 123°08'918.5
2017-Jul-19 02:59N 48°53' W 123°17'713.0
2017-Jul-19 02:27N 48°47' W 123°21'612.7
2017-Jul-19 02:00N 48°41' W 123°25'0 0.5
2017-Jul-19 01:31N 48°41' W 123°24'713.7
2017-Jul-19 00:59N 48°48' W 123°21'715.1
2017-Jul-19 00:30N 48°55' W 123°15'815.2
2017-Jul-19 00:00N 49°00' W 123°08'0 0.0
2017-Jul-18 23:30N 49°00' W 123°08'815.9
2017-Jul-18 22:59N 48°54' W 123°16'714.6
2017-Jul-18 22:30N 48°48' W 123°21'713.7
2017-Jul-18 22:00N 48°41' W 123°25'0 0.0
2017-Jul-18 21:30N 48°41' W 123°25'714.5
2017-Jul-18 21:00N 48°48' W 123°21'816.1
2017-Jul-18 20:30N 48°55' W 123°15'713.6
2017-Jul-18 20:00N 49°00' W 123°08'0 0.2
2017-Jul-18 19:30N 49°00' W 123°08'816.4
2017-Jul-18 19:00N 48°54' W 123°16'816.0
2017-Jul-18 18:29N 48°46' W 123°21'611.7
2017-Jul-18 18:00N 48°41' W 123°25'1 1.1
2017-Jul-18 17:31N 48°42' W 123°24'916.3
2017-Jul-18 16:57N 48°51' W 123°21'715.3
2017-Jul-18 16:30N 48°56' W 123°15'612.6
2017-Jul-18 16:00N 49°00' W 123°08'0 0.0
2017-Jul-18 15:30N 49°00' W 123°08'714.6
2017-Jul-18 15:00N 48°55' W 123°15'1514.7
2017-Jul-18 14:00N 48°41' W 123°25'0 0.1
2017-Jul-18 13:31N 48°41' W 123°25'0 0.0
2017-Jul-18 12:59N 48°41' W 123°25'0 0.0
2017-Jul-18 12:29N 48°41' W 123°25'0 0.0
2017-Jul-18 11:59N 48°41' W 123°25'0 0.0
2017-Jul-18 11:29N 48°41' W 123°25'0 0.0
2017-Jul-18 10:56N 48°41' W 123°25'0 0.0
2017-Jul-18 10:29N 48°41' W 123°25'0 0.0
2017-Jul-18 09:59N 48°41' W 123°25'0 0.0
2017-Jul-18 09:29N 48°41' W 123°25'0 0.0
2017-Jul-18 08:59N 48°41' W 123°25'0 0.0
2017-Jul-18 08:29N 48°41' W 123°25'0 0.0
2017-Jul-18 07:59N 48°41' W 123°25'0 0.0
2017-Jul-18 07:29N 48°41' W 123°25'0 0.0
2017-Jul-18 06:59N 48°41' W 123°25'0 0.0
2017-Jul-18 06:29N 48°41' W 123°25'0 0.0
2017-Jul-18 05:59N 48°41' W 123°25'0 0.0
2017-Jul-18 05:30N 48°41' W 123°25'713.6
2017-Jul-18 05:00N 48°48' W 123°21'714.2
2017-Jul-18 04:30N 48°54' W 123°16'816.4
2017-Jul-18 04:00N 49°00' W 123°08'0 0.1
2017-Jul-18 03:30N 49°00' W 123°08'816.4
2017-Jul-18 03:01N 48°54' W 123°16'713.1
2017-Jul-18 02:30N 48°48' W 123°21'714.5
2017-Jul-18 02:00N 48°41' W 123°25'0 0.2
2017-Jul-18 01:30N 48°41' W 123°25'714.2
2017-Jul-18 01:00N 48°48' W 123°21'815.1
2017-Jul-18 00:30N 48°55' W 123°16'815.5
2017-Jul-18 00:00N 49°00' W 123°08'0 0.0
2017-Jul-17 23:30N 49°00' W 123°08'816.4
2017-Jul-17 23:00N 48°54' W 123°16'713.8
2017-Jul-17 22:30N 48°48' W 123°21'714.1
2017-Jul-17 22:00N 48°41' W 123°25'0 0.0
2017-Jul-17 21:30N 48°41' W 123°25'714.8
2017-Jul-17 21:00N 48°48' W 123°21'917.1
2017-Jul-17 20:30N 48°56' W 123°15'612.3
2017-Jul-17 20:00N 49°00' W 123°08'0 0.1
2017-Jul-17 19:30N 49°00' W 123°08'816.5
2017-Jul-17 19:00N 48°54' W 123°16'714.0
2017-Jul-17 18:30N 48°48' W 123°21'713.8
2017-Jul-17 18:00N 48°41' W 123°25'0 0.0
2017-Jul-17 17:31N 48°41' W 123°25'714.3
2017-Jul-17 17:00N 48°48' W 123°21'815.3
2017-Jul-17 16:30N 48°55' W 123°16'714.9
2017-Jul-17 16:00N 49°00' W 123°08'0 0.0
2017-Jul-17 15:30N 49°00' W 123°08'714.4
2017-Jul-17 15:00N 48°55' W 123°15'715.0
2017-Jul-17 14:31N 48°48' W 123°20'714.8
2017-Jul-17 14:01N 48°42' W 123°25'0 0.3
2017-Jul-17 13:31N 48°41' W 123°25'0 0.0
2017-Jul-17 13:00N 48°41' W 123°25'0 0.0
2017-Jul-17 12:30N 48°41' W 123°25'0 0.0
2017-Jul-17 12:00N 48°41' W 123°25'0 0.0
2017-Jul-17 11:30N 48°41' W 123°25'0 0.0
2017-Jul-17 11:00N 48°41' W 123°25'0 0.0
2017-Jul-17 10:24N 48°41' W 123°25'0 0.0
2017-Jul-17 10:00N 48°41' W 123°25'0 0.0
2017-Jul-17 09:30N 48°41' W 123°25'0 0.0
2017-Jul-17 08:57N 48°41' W 123°25'0 0.0
2017-Jul-17 08:30N 48°41' W 123°25'0 0.0
2017-Jul-17 08:00N 48°41' W 123°25'0 0.0
2017-Jul-17 07:24N 48°41' W 123°25'0 0.0
2017-Jul-17 07:00N 48°41' W 123°25'0 0.0
2017-Jul-17 06:30N 48°41' W 123°25'0 0.0
2017-Jul-17 06:00N 48°41' W 123°25'0 0.2
2017-Jul-17 05:30N 48°41' W 123°25'815.6
2017-Jul-17 05:00N 48°49' W 123°21'815.2
2017-Jul-17 04:30N 48°56' W 123°15'713.6
2017-Jul-17 04:01N 49°00' W 123°08'0 0.3
2017-Jul-17 03:30N 49°00' W 123°08'918.4
2017-Jul-17 03:00N 48°53' W 123°17'612.7
2017-Jul-17 02:30N 48°47' W 123°21'612.9
2017-Jul-17 02:00N 48°41' W 123°25'0 0.0
2017-Jul-17 01:31N 48°41' W 123°25'815.0
2017-Jul-17 01:00N 48°48' W 123°21'714.9
2017-Jul-17 00:30N 48°55' W 123°16'714.5
2017-Jul-17 00:00N 49°00' W 123°08'0 0.1
2017-Jul-16 23:31N 49°00' W 123°08'917.9
2017-Jul-16 23:01N 48°54' W 123°17'815.5
2017-Jul-16 22:30N 48°46' W 123°22'510.7
2017-Jul-16 22:00N 48°41' W 123°25'0 0.0
2017-Jul-16 21:30N 48°41' W 123°25'715.0
2017-Jul-16 21:00N 48°48' W 123°21'816.1
2017-Jul-16 20:31N 48°56' W 123°15'713.4
2017-Jul-16 20:00N 49°00' W 123°08'0 0.1
2017-Jul-16 19:30N 49°00' W 123°08'917.3
2017-Jul-16 19:01N 48°54' W 123°16'815.6
2017-Jul-16 18:31N 48°47' W 123°21'611.2
2017-Jul-16 18:00N 48°41' W 123°25'0 0.1
2017-Jul-16 17:30N 48°41' W 123°25'714.8
2017-Jul-16 17:00N 48°48' W 123°21'714.9
2017-Jul-16 16:30N 48°55' W 123°16'715.0
2017-Jul-16 16:01N 49°00' W 123°08'0 0.0
2017-Jul-16 15:31N 49°00' W 123°08'815.9
2017-Jul-16 15:00N 48°54' W 123°16'713.2
2017-Jul-16 14:30N 48°48' W 123°20'815.1
2017-Jul-16 14:01N 48°41' W 123°25'0 0.1
2017-Jul-16 13:31N 48°41' W 123°25'0 0.0
2017-Jul-16 13:01N 48°41' W 123°25'0 0.0
2017-Jul-16 12:31N 48°41' W 123°25'0 0.0
2017-Jul-16 12:00N 48°41' W 123°25'0 0.0
2017-Jul-16 11:30N 48°41' W 123°25'0 0.0
2017-Jul-16 11:00N 48°41' W 123°25'0 0.0
2017-Jul-16 10:30N 48°41' W 123°25'0 0.0
2017-Jul-16 10:00N 48°41' W 123°25'0 0.0
2017-Jul-16 09:27N 48°41' W 123°25'0 0.0
2017-Jul-16 09:00N 48°41' W 123°25'0 0.0
2017-Jul-16 08:30N 48°41' W 123°25'0 0.0
2017-Jul-16 08:00N 48°41' W 123°25'0 0.0
2017-Jul-16 07:30N 48°41' W 123°25'0 0.0
2017-Jul-16 07:00N 48°41' W 123°25'0 0.0
2017-Jul-16 06:30N 48°41' W 123°25'0 0.0
2017-Jul-16 06:00N 48°41' W 123°25'0 0.0
2017-Jul-16 05:31N 48°41' W 123°25'713.9
2017-Jul-16 05:00N 48°48' W 123°21'815.4
2017-Jul-16 04:30N 48°55' W 123°16'715.1
2017-Jul-16 04:00N 49°00' W 123°08'1 1.4
2017-Jul-16 03:30N 48°60' W 123°09'713.8
2017-Jul-16 03:00N 48°54' W 123°16'714.6
2017-Jul-16 02:31N 48°48' W 123°21'714.5
2017-Jul-16 02:01N 48°41' W 123°25'0 0.1
2017-Jul-16 01:30N 48°41' W 123°25'815.2
2017-Jul-16 01:01N 48°49' W 123°21'714.1
2017-Jul-16 00:30N 48°55' W 123°16'815.1
2017-Jul-16 00:00N 49°00' W 123°08'0 0.0
2017-Jul-15 23:30N 49°00' W 123°08'815.0
2017-Jul-15 23:00N 48°54' W 123°15'714.9
2017-Jul-15 22:30N 48°48' W 123°21'714.4
2017-Jul-15 22:00N 48°41' W 123°25'0 0.1
2017-Jul-15 21:30N 48°41' W 123°25'815.9
2017-Jul-15 21:00N 48°49' W 123°21'816.9
2017-Jul-15 20:30N 48°56' W 123°14'611.5
2017-Jul-15 20:01N 49°00' W 123°08'0 0.1
2017-Jul-15 19:30N 49°00' W 123°08'816.2
2017-Jul-15 19:01N 48°54' W 123°16'714.0
2017-Jul-15 18:30N 48°48' W 123°21'713.9
2017-Jul-15 18:00N 48°41' W 123°25'0 0.0
2017-Jul-15 17:31N 48°41' W 123°25'714.7
2017-Jul-15 17:00N 48°48' W 123°21'815.5
2017-Jul-15 16:31N 48°55' W 123°16'714.6
2017-Jul-15 16:00N 49°00' W 123°08'0 0.1
2017-Jul-15 15:30N 49°00' W 123°08'713.4
2017-Jul-15 15:00N 48°55' W 123°14'1515.4
2017-Jul-15 14:00N 48°41' W 123°25'0 0.0
2017-Jul-15 13:30N 48°41' W 123°25'0 0.0
2017-Jul-15 13:00N 48°41' W 123°25'0 0.0
2017-Jul-15 12:30N 48°41' W 123°25'0 0.0
2017-Jul-15 11:58N 48°41' W 123°25'0 0.0
2017-Jul-15 11:28N 48°41' W 123°25'0 0.0
2017-Jul-15 10:58N 48°41' W 123°25'0 0.0
2017-Jul-15 10:28N 48°41' W 123°25'0 0.0
2017-Jul-15 09:58N 48°41' W 123°25'0 0.0
2017-Jul-15 09:28N 48°41' W 123°25'0 0.0
2017-Jul-15 08:58N 48°41' W 123°25'0 0.0
2017-Jul-15 08:28N 48°41' W 123°25'0 0.0
2017-Jul-15 07:58N 48°41' W 123°25'0 0.0
2017-Jul-15 07:28N 48°41' W 123°25'0 0.0
2017-Jul-15 06:58N 48°41' W 123°25'0 0.0
2017-Jul-15 06:28N 48°41' W 123°25'0 0.0
2017-Jul-15 05:58N 48°41' W 123°25'0 0.0
2017-Jul-15 05:30N 48°41' W 123°25'714.0
2017-Jul-15 05:00N 48°48' W 123°21'815.9
2017-Jul-15 04:31N 48°55' W 123°16'714.6
2017-Jul-15 04:00N 49°00' W 123°08'0 0.1
2017-Jul-15 03:30N 49°00' W 123°08'917.4
2017-Jul-15 02:58N 48°53' W 123°17'715.6
2017-Jul-15 02:30N 48°47' W 123°21'611.2
2017-Jul-15 02:00N 48°41' W 123°25'2 3.2
2017-Jul-15 01:30N 48°42' W 123°22'918.3
2017-Jul-15 01:00N 48°51' W 123°21'714.2
2017-Jul-15 00:30N 48°56' W 123°14'611.6
2017-Jul-15 00:00N 49°00' W 123°08'0 0.0
2017-Jul-14 23:30N 49°00' W 123°08'816.6
2017-Jul-14 23:00N 48°54' W 123°16'815.1
2017-Jul-14 22:30N 48°47' W 123°21'612.5
2017-Jul-14 22:01N 48°41' W 123°25'0 0.0
2017-Jul-14 21:30N 48°41' W 123°25'814.9
2017-Jul-14 21:00N 48°48' W 123°21'916.5
2017-Jul-14 20:28N 48°56' W 123°14'612.4
2017-Jul-14 20:00N 49°00' W 123°08'0 0.1
2017-Jul-14 19:30N 49°00' W 123°08'917.4
2017-Jul-14 18:59N 48°53' W 123°17'713.7
2017-Jul-14 18:30N 48°47' W 123°21'6 5.9
2017-Jul-14 17:27N 48°41' W 123°24'916.2
2017-Jul-14 16:54N 48°50' W 123°21'615.4
2017-Jul-14 16:30N 48°55' W 123°16'714.6
2017-Jul-14 16:00N 49°00' W 123°08'0 0.0
2017-Jul-14 15:30N 49°00' W 123°08'815.1
2017-Jul-14 15:00N 48°54' W 123°15'714.8
2017-Jul-14 14:31N 48°48' W 123°21'714.2
2017-Jul-14 14:01N 48°41' W 123°25'0 0.0
2017-Jul-14 12:08N 48°41' W 123°25'0 0.0
2017-Jul-14 11:56N 48°41' W 123°25'0 0.0
2017-Jul-14 11:14N 48°41' W 123°25'0 0.0
2017-Jul-14 10:50N 48°41' W 123°25'0 0.0
2017-Jul-14 10:26N 48°41' W 123°25'0 0.0
2017-Jul-14 05:26N 48°41' W 123°25'916.0
2017-Jul-14 04:52N 48°50' W 123°21'615.1
2017-Jul-14 04:30N 48°55' W 123°16'815.6
2017-Jul-14 04:00N 49°00' W 123°08'0 0.0
2017-Jul-14 03:31N 49°00' W 123°08'916.9
2017-Jul-14 03:00N 48°54' W 123°17'916.9
2017-Jul-14 02:28N 48°45' W 123°22'4 9.6
2017-Jul-14 02:00N 48°41' W 123°25'2 3.4
2017-Jul-14 01:30N 48°42' W 123°22'917.4
2017-Jul-14 01:00N 48°50' W 123°21'612.8
2017-Jul-14 00:30N 48°56' W 123°15'713.6
2017-Jul-14 00:00N 49°00' W 123°08'0 0.1
2017-Jul-13 23:30N 49°00' W 123°08'816.6
2017-Jul-13 23:00N 48°54' W 123°16'714.3
2017-Jul-13 22:29N 48°47' W 123°21'611.9
2017-Jul-13 21:57N 48°41' W 123°25'0 0.2
2017-Jul-13 21:29N 48°41' W 123°25'816.1
2017-Jul-13 21:00N 48°49' W 123°21'815.5
2017-Jul-13 20:30N 48°56' W 123°15'713.4
2017-Jul-13 20:00N 49°00' W 123°08'0 0.1
2017-Jul-13 19:30N 49°00' W 123°08'917.1
2017-Jul-13 19:00N 48°54' W 123°16'713.4
2017-Jul-13 18:29N 48°47' W 123°21'613.6
2017-Jul-13 18:00N 48°41' W 123°25'0 0.1
2017-Jul-13 17:30N 48°41' W 123°25'714.5
2017-Jul-13 17:00N 48°48' W 123°21'815.9
2017-Jul-13 16:30N 48°55' W 123°15'714.3
2017-Jul-13 16:00N 49°00' W 123°08'0 0.1
2017-Jul-13 15:30N 49°00' W 123°08'815.5
2017-Jul-13 15:00N 48°54' W 123°16'714.1
2017-Jul-13 14:30N 48°48' W 123°21'713.8
2017-Jul-13 13:59N 48°41' W 123°25'0 0.0
2017-Jul-13 08:44N 48°41' W 123°25'0 0.0
2017-Jul-13 08:26N 48°41' W 123°25'0 0.1
2017-Jul-13 05:24N 48°41' W 123°25'615.9
2017-Jul-13 05:00N 48°47' W 123°21'817.0
2017-Jul-13 04:30N 48°55' W 123°16'815.1
2017-Jul-13 04:01N 49°00' W 123°08'0 0.0
2017-Jul-13 03:31N 49°00' W 123°08'814.5
2017-Jul-13 02:59N 48°55' W 123°15'815.6
2017-Jul-13 02:30N 48°48' W 123°21'7 7.1
2017-Jul-13 01:31N 48°41' W 123°25'0 5.5
2017-Jul-13 01:30N 48°41' W 123°24'815.8
2017-Jul-13 00:58N 48°50' W 123°21'714.2
2017-Jul-13 00:30N 48°55' W 123°16'714.2
2017-Jul-13 00:00N 49°00' W 123°08'0 0.0
2017-Jul-12 23:30N 49°00' W 123°08'714.8
2017-Jul-12 23:00N 48°55' W 123°15'816.0
2017-Jul-12 22:30N 48°48' W 123°21'713.1
2017-Jul-12 22:00N 48°41' W 123°25'0 0.0
2017-Jul-12 21:30N 48°41' W 123°25'915.6
2017-Jul-12 20:56N 48°50' W 123°21'715.2
2017-Jul-12 20:30N 48°55' W 123°15'714.1
2017-Jul-12 20:00N 49°00' W 123°08'0 0.1
2017-Jul-12 19:30N 49°00' W 123°08'816.1
2017-Jul-12 19:00N 48°54' W 123°16'713.9
2017-Jul-12 18:30N 48°48' W 123°21'7 9.8
2017-Jul-12 17:48N 48°41' W 123°25'0 0.2
2017-Jul-12 17:30N 48°41' W 123°25'713.7
2017-Jul-12 17:00N 48°48' W 123°21'816.2
2017-Jul-12 16:31N 48°55' W 123°15'714.3
2017-Jul-12 16:00N 49°00' W 123°08'0 0.2
2017-Jul-12 15:30N 49°00' W 123°08'815.7
2017-Jul-12 15:00N 48°54' W 123°16'1414.1
2017-Jul-12 14:01N 48°41' W 123°25'0 0.1
2017-Jul-12 13:31N 48°41' W 123°25'0 0.0
2017-Jul-12 12:59N 48°41' W 123°25'0 0.0
2017-Jul-12 12:29N 48°41' W 123°25'0 0.0
2017-Jul-12 11:59N 48°41' W 123°25'0 0.0
2017-Jul-12 11:29N 48°41' W 123°25'0 0.0
2017-Jul-12 10:59N 48°41' W 123°25'0 0.0
2017-Jul-12 10:29N 48°41' W 123°25'0 0.0
2017-Jul-12 09:59N 48°41' W 123°25'0 0.0
2017-Jul-12 09:29N 48°41' W 123°25'0 0.0
2017-Jul-12 08:59N 48°41' W 123°25'0 0.0
2017-Jul-12 08:29N 48°41' W 123°25'0 0.0
2017-Jul-12 07:59N 48°41' W 123°25'0 0.0
2017-Jul-12 07:26N 48°41' W 123°25'0 0.0
2017-Jul-12 06:59N 48°41' W 123°25'0 0.0
2017-Jul-12 06:29N 48°41' W 123°25'0 0.0
2017-Jul-12 05:59N 48°41' W 123°25'1 2.2
2017-Jul-12 05:31N 48°42' W 123°23'713.4
2017-Jul-12 05:01N 48°48' W 123°21'816.2
2017-Jul-12 04:31N 48°55' W 123°15'713.7
2017-Jul-12 04:00N 49°00' W 123°08'0 0.3
2017-Jul-12 03:30N 49°00' W 123°08'815.5
2017-Jul-12 02:59N 48°54' W 123°16'713.0
2017-Jul-12 02:29N 48°48' W 123°21'715.2
2017-Jul-12 01:59N 48°41' W 123°25'0 0.2
2017-Jul-12 01:30N 48°41' W 123°25'815.4
2017-Jul-12 00:59N 48°49' W 123°21'713.9
2017-Jul-12 00:30N 48°55' W 123°16'815.0
2017-Jul-12 00:00N 49°00' W 123°08'0 0.1
2017-Jul-11 23:30N 49°00' W 123°08'714.9
2017-Jul-11 23:00N 48°55' W 123°15'815.1
2017-Jul-11 22:30N 48°48' W 123°21'712.8
2017-Jul-11 21:57N 48°41' W 123°25'0 0.2
2017-Jul-11 21:30N 48°41' W 123°25'815.4
2017-Jul-11 21:01N 48°49' W 123°21'814.9
2017-Jul-11 20:30N 48°55' W 123°16'714.4
2017-Jul-11 20:00N 49°00' W 123°08'0 0.1
2017-Jul-11 19:30N 49°00' W 123°08'816.3
2017-Jul-11 19:00N 48°54' W 123°16'713.9
2017-Jul-11 18:30N 48°48' W 123°21'713.6
2017-Jul-11 18:00N 48°41' W 123°25'0 0.0
2017-Jul-11 17:29N 48°41' W 123°25'714.6
2017-Jul-11 16:59N 48°48' W 123°20'816.5
2017-Jul-11 16:30N 48°55' W 123°15'713.6
2017-Jul-11 16:00N 49°00' W 123°08'0 0.2
2017-Jul-11 15:30N 49°00' W 123°08'816.3
2017-Jul-11 15:00N 48°54' W 123°16'713.4
2017-Jul-11 14:30N 48°48' W 123°21'710.5
2017-Jul-11 13:50N 48°41' W 123°25'0 0.0
2017-Jul-11 05:22N 48°41' W 123°24'917.0
2017-Jul-11 04:50N 48°50' W 123°21'617.5
2017-Jul-11 04:30N 48°55' W 123°16'715.0
2017-Jul-11 04:00N 49°00' W 123°08'0 0.2
2017-Jul-11 03:30N 49°00' W 123°08'816.2
2017-Jul-11 03:00N 48°54' W 123°16'713.9
2017-Jul-11 02:28N 48°47' W 123°21'  
Track history (hours):
 
Tides and Currents Weather Stations Pressure Air Temp Water Temp Dewpoint Dewpoint Depression Visibility Wind Speed Wind Dir Waves Ship Positions

Spirit Of Vi

Last reported at 2017-Jul-21 02:30 UTC. Time now 2017-Jul-21 02:28 UTC.
Position N 48°46' W 123°22'.

Length 168 m; draft 5 m.

Type: Ship. MMSI: 316001269.

Date/timePositionNaut miles runAvg speedWind from/ knotsBaromVisibWave heightAir tempDewpointWater temp
2017-Jul-21 02:30N 48°46' W 123°22'5 9.2
2017-Jul-21 02:01N 48°41' W 123°25'1 1.5
2017-Jul-21 01:31N 48°42' W 123°24'918.2
2017-Jul-21 01:00N 48°51' W 123°21'918.0
2017-Jul-21 00:30N 48°58' W 123°13'4 8.2
2017-Jul-21 00:00N 49°00' W 123°08'2 4.1
2017-Jul-20 23:30N 48°59' W 123°10'1417.0
2017-Jul-20 22:41N 48°47' W 123°21'419.5
2017-Jul-20 22:31N 48°44' W 123°24'3 5.3
2017-Jul-20 22:00N 48°41' W 123°25'2 4.9
2017-Jul-20 21:30N 48°42' W 123°21'917.8
2017-Jul-20 20:59N 48°52' W 123°21'611.3
2017-Jul-20 20:30N 48°56' W 123°15'613.1
2017-Jul-20 20:01N 49°00' W 123°08'0 0.5
2017-Jul-20 19:30N 49°00' W 123°08'1019.2
2017-Jul-20 19:00N 48°53' W 123°18'815.9
2017-Jul-20 18:31N 48°45' W 123°21'5 9.2
2017-Jul-20 18:00N 48°41' W 123°25'0 0.1
2017-Jul-20 17:30N 48°41' W 123°25'815.3
2017-Jul-20 17:00N 48°49' W 123°21'714.8
2017-Jul-20 16:30N 48°55' W 123°16'714.4
2017-Jul-20 16:00N 49°00' W 123°08'0 0.1
2017-Jul-20 15:30N 49°00' W 123°08'916.6
2017-Jul-20 15:00N 48°54' W 123°16'1413.8
2017-Jul-20 14:01N 48°41' W 123°25'0 0.0
2017-Jul-20 13:31N 48°41' W 123°25'0 0.0
2017-Jul-20 12:59N 48°41' W 123°25'0 0.0
2017-Jul-20 12:29N 48°41' W 123°25'0 0.0
2017-Jul-20 11:59N 48°41' W 123°25'0 0.0
2017-Jul-20 11:29N 48°41' W 123°25'0 0.0
2017-Jul-20 10:59N 48°41' W 123°25'0 0.0
2017-Jul-20 10:29N 48°41' W 123°25'0 0.0
2017-Jul-20 09:59N 48°41' W 123°25'0 0.0
2017-Jul-20 09:29N 48°41' W 123°25'0 0.0
2017-Jul-20 08:56N 48°41' W 123°25'0 0.0
2017-Jul-20 08:29N 48°41' W 123°25'0 0.0
2017-Jul-20 07:56N 48°41' W 123°25'0 0.0
2017-Jul-20 07:29N 48°41' W 123°25'0 0.0
2017-Jul-20 06:59N 48°41' W 123°25'0 0.0
2017-Jul-20 06:29N 48°41' W 123°25'0 0.0
2017-Jul-20 05:59N 48°41' W 123°25'0 0.0
2017-Jul-20 05:30N 48°41' W 123°25'814.8
2017-Jul-20 04:59N 48°49' W 123°21'715.3
2017-Jul-20 04:30N 48°55' W 123°16'714.7
2017-Jul-20 04:00N 49°00' W 123°08'0 0.2
2017-Jul-20 03:30N 49°00' W 123°08'815.3
2017-Jul-20 03:00N 48°54' W 123°16'715.0
2017-Jul-20 02:30N 48°48' W 123°21'713.6
2017-Jul-20 02:00N 48°41' W 123°25'0 0.1
2017-Jul-20 01:30N 48°41' W 123°25'714.7
2017-Jul-20 01:00N 48°48' W 123°21'816.7
2017-Jul-20 00:30N 48°56' W 123°15'712.9
2017-Jul-20 00:00N 49°00' W 123°08'0 0.0
2017-Jul-19 23:30N 49°00' W 123°08'816.5
2017-Jul-19 23:01N 48°54' W 123°16'815.8
2017-Jul-19 22:30N 48°47' W 123°21'612.3
2017-Jul-19 22:00N 48°41' W 123°25'1 1.1
2017-Jul-19 21:31N 48°42' W 123°24'816.7
2017-Jul-19 21:00N 48°50' W 123°21'714.0
2017-Jul-19 20:30N 48°56' W 123°15'712.5
2017-Jul-19 19:58N 49°00' W 123°08'0 0.1
2017-Jul-19 19:31N 49°00' W 123°08'917.3
2017-Jul-19 18:59N 48°53' W 123°17'613.5
2017-Jul-19 18:30N 48°47' W 123°21'713.3
2017-Jul-19 18:00N 48°41' W 123°25'0 0.3
2017-Jul-19 17:31N 48°41' W 123°25'815.7
2017-Jul-19 16:59N 48°49' W 123°21'713.9
2017-Jul-19 16:27N 48°56' W 123°15'714.4
2017-Jul-19 16:00N 49°00' W 123°08'0 0.2
2017-Jul-19 15:30N 49°00' W 123°08'815.6
2017-Jul-19 14:59N 48°54' W 123°16'714.5
2017-Jul-19 14:30N 48°48' W 123°21'714.0
2017-Jul-19 14:00N 48°41' W 123°25'0 0.0
2017-Jul-19 13:31N 48°41' W 123°25'0 0.0
2017-Jul-19 13:01N 48°41' W 123°25'0 0.0
2017-Jul-19 12:31N 48°41' W 123°25'0 0.0
2017-Jul-19 11:59N 48°41' W 123°25'0 0.0
2017-Jul-19 11:29N 48°41' W 123°25'0 0.0
2017-Jul-19 10:59N 48°41' W 123°25'0 0.0
2017-Jul-19 10:29N 48°41' W 123°25'0 0.0
2017-Jul-19 09:59N 48°41' W 123°25'0 0.0
2017-Jul-19 09:29N 48°41' W 123°25'0 0.0
2017-Jul-19 08:59N 48°41' W 123°25'0 0.0
2017-Jul-19 08:29N 48°41' W 123°25'0 0.0
2017-Jul-19 07:56N 48°41' W 123°25'0 0.0
2017-Jul-19 07:29N 48°41' W 123°25'0 0.0
2017-Jul-19 06:59N 48°41' W 123°25'0 0.0
2017-Jul-19 06:29N 48°41' W 123°25'0 0.0
2017-Jul-19 05:56N 48°41' W 123°25'0 0.5
2017-Jul-19 05:31N 48°41' W 123°24'814.7
2017-Jul-19 04:59N 48°49' W 123°21'714.6
2017-Jul-19 04:30N 48°55' W 123°16'714.9
2017-Jul-19 04:01N 49°00' W 123°08'0 0.2
2017-Jul-19 03:30N 49°00' W 123°08'918.5
2017-Jul-19 02:59N 48°53' W 123°17'713.0
2017-Jul-19 02:27N 48°47' W 123°21'612.7
2017-Jul-19 02:00N 48°41' W 123°25'0 0.5
2017-Jul-19 01:31N 48°41' W 123°24'713.7
2017-Jul-19 00:59N 48°48' W 123°21'715.1
2017-Jul-19 00:30N 48°55' W 123°15'815.2
2017-Jul-19 00:00N 49°00' W 123°08'0 0.0
2017-Jul-18 23:30N 49°00' W 123°08'815.9
2017-Jul-18 22:59N 48°54' W 123°16'714.6
2017-Jul-18 22:30N 48°48' W 123°21'713.7
2017-Jul-18 22:00N 48°41' W 123°25'0 0.0
2017-Jul-18 21:30N 48°41' W 123°25'714.5
2017-Jul-18 21:00N 48°48' W 123°21'816.1
2017-Jul-18 20:30N 48°55' W 123°15'713.6
2017-Jul-18 20:00N 49°00' W 123°08'0 0.2
2017-Jul-18 19:30N 49°00' W 123°08'816.4
2017-Jul-18 19:00N 48°54' W 123°16'816.0
2017-Jul-18 18:29N 48°46' W 123°21'611.7
2017-Jul-18 18:00N 48°41' W 123°25'1 1.1
2017-Jul-18 17:31N 48°42' W 123°24'916.3
2017-Jul-18 16:57N 48°51' W 123°21'715.3
2017-Jul-18 16:30N 48°56' W 123°15'612.6
2017-Jul-18 16:00N 49°00' W 123°08'0 0.0
2017-Jul-18 15:30N 49°00' W 123°08'714.6
2017-Jul-18 15:00N 48°55' W 123°15'1514.7
2017-Jul-18 14:00N 48°41' W 123°25'0 0.1
2017-Jul-18 13:31N 48°41' W 123°25'0 0.0
2017-Jul-18 12:59N 48°41' W 123°25'0 0.0
2017-Jul-18 12:29N 48°41' W 123°25'0 0.0
2017-Jul-18 11:59N 48°41' W 123°25'0 0.0
2017-Jul-18 11:29N 48°41' W 123°25'0 0.0
2017-Jul-18 10:56N 48°41' W 123°25'0 0.0
2017-Jul-18 10:29N 48°41' W 123°25'0 0.0
2017-Jul-18 09:59N 48°41' W 123°25'0 0.0
2017-Jul-18 09:29N 48°41' W 123°25'0 0.0
2017-Jul-18 08:59N 48°41' W 123°25'0 0.0
2017-Jul-18 08:29N 48°41' W 123°25'0 0.0
2017-Jul-18 07:59N 48°41' W 123°25'0 0.0
2017-Jul-18 07:29N 48°41' W 123°25'0 0.0
2017-Jul-18 06:59N 48°41' W 123°25'0 0.0
2017-Jul-18 06:29N 48°41' W 123°25'0 0.0
2017-Jul-18 05:59N 48°41' W 123°25'0 0.0
2017-Jul-18 05:30N 48°41' W 123°25'713.6
2017-Jul-18 05:00N 48°48' W 123°21'714.2
2017-Jul-18 04:30N 48°54' W 123°16'816.4
2017-Jul-18 04:00N 49°00' W 123°08'0 0.1
2017-Jul-18 03:30N 49°00' W 123°08'816.4
2017-Jul-18 03:01N 48°54' W 123°16'713.1
2017-Jul-18 02:30N 48°48' W 123°21'714.5
2017-Jul-18 02:00N 48°41' W 123°25'0 0.2
2017-Jul-18 01:30N 48°41' W 123°25'714.2
2017-Jul-18 01:00N 48°48' W 123°21'815.1
2017-Jul-18 00:30N 48°55' W 123°16'815.5
2017-Jul-18 00:00N 49°00' W 123°08'0 0.0
2017-Jul-17 23:30N 49°00' W 123°08'816.4
2017-Jul-17 23:00N 48°54' W 123°16'713.8
2017-Jul-17 22:30N 48°48' W 123°21'714.1
2017-Jul-17 22:00N 48°41' W 123°25'0 0.0
2017-Jul-17 21:30N 48°41' W 123°25'714.8
2017-Jul-17 21:00N 48°48' W 123°21'917.1
2017-Jul-17 20:30N 48°56' W 123°15'612.3
2017-Jul-17 20:00N 49°00' W 123°08'0 0.1
2017-Jul-17 19:30N 49°00' W 123°08'816.5
2017-Jul-17 19:00N 48°54' W 123°16'714.0
2017-Jul-17 18:30N 48°48' W 123°21'713.8
2017-Jul-17 18:00N 48°41' W 123°25'0 0.0
2017-Jul-17 17:31N 48°41' W 123°25'714.3
2017-Jul-17 17:00N 48°48' W 123°21'815.3
2017-Jul-17 16:30N 48°55' W 123°16'714.9
2017-Jul-17 16:00N 49°00' W 123°08'0 0.0
2017-Jul-17 15:30N 49°00' W 123°08'714.4
2017-Jul-17 15:00N 48°55' W 123°15'715.0
2017-Jul-17 14:31N 48°48' W 123°20'714.8
2017-Jul-17 14:01N 48°42' W 123°25'0 0.3
2017-Jul-17 13:31N 48°41' W 123°25'0 0.0
2017-Jul-17 13:00N 48°41' W 123°25'0 0.0
2017-Jul-17 12:30N 48°41' W 123°25'0 0.0
2017-Jul-17 12:00N 48°41' W 123°25'0 0.0
2017-Jul-17 11:30N 48°41' W 123°25'0 0.0
2017-Jul-17 11:00N 48°41' W 123°25'0 0.0
2017-Jul-17 10:24N 48°41' W 123°25'0 0.0
2017-Jul-17 10:00N 48°41' W 123°25'0 0.0
2017-Jul-17 09:30N 48°41' W 123°25'0 0.0
2017-Jul-17 08:57N 48°41' W 123°25'0 0.0
2017-Jul-17 08:30N 48°41' W 123°25'0 0.0
2017-Jul-17 08:00N 48°41' W 123°25'0 0.0
2017-Jul-17 07:24N 48°41' W 123°25'0 0.0
2017-Jul-17 07:00N 48°41' W 123°25'0 0.0
2017-Jul-17 06:30N 48°41' W 123°25'0 0.0
2017-Jul-17 06:00N 48°41' W 123°25'0 0.2
2017-Jul-17 05:30N 48°41' W 123°25'815.6
2017-Jul-17 05:00N 48°49' W 123°21'815.2
2017-Jul-17 04:30N 48°56' W 123°15'713.6
2017-Jul-17 04:01N 49°00' W 123°08'0 0.3
2017-Jul-17 03:30N 49°00' W 123°08'918.4
2017-Jul-17 03:00N 48°53' W 123°17'612.7
2017-Jul-17 02:30N 48°47' W 123°21'612.9
2017-Jul-17 02:00N 48°41' W 123°25'0 0.0
2017-Jul-17 01:31N 48°41' W 123°25'815.0
2017-Jul-17 01:00N 48°48' W 123°21'714.9
2017-Jul-17 00:30N 48°55' W 123°16'714.5
2017-Jul-17 00:00N 49°00' W 123°08'0 0.1
2017-Jul-16 23:31N 49°00' W 123°08'917.9
2017-Jul-16 23:01N 48°54' W 123°17'815.5
2017-Jul-16 22:30N 48°46' W 123°22'510.7
2017-Jul-16 22:00N 48°41' W 123°25'0 0.0
2017-Jul-16 21:30N 48°41' W 123°25'715.0
2017-Jul-16 21:00N 48°48' W 123°21'816.1
2017-Jul-16 20:31N 48°56' W 123°15'713.4
2017-Jul-16 20:00N 49°00' W 123°08'0 0.1
2017-Jul-16 19:30N 49°00' W 123°08'917.3
2017-Jul-16 19:01N 48°54' W 123°16'815.6
2017-Jul-16 18:31N 48°47' W 123°21'611.2
2017-Jul-16 18:00N 48°41' W 123°25'0 0.1
2017-Jul-16 17:30N 48°41' W 123°25'714.8
2017-Jul-16 17:00N 48°48' W 123°21'714.9
2017-Jul-16 16:30N 48°55' W 123°16'715.0
2017-Jul-16 16:01N 49°00' W 123°08'0 0.0
2017-Jul-16 15:31N 49°00' W 123°08'815.9
2017-Jul-16 15:00N 48°54' W 123°16'713.2
2017-Jul-16 14:30N 48°48' W 123°20'815.1
2017-Jul-16 14:01N 48°41' W 123°25'0 0.1
2017-Jul-16 13:31N 48°41' W 123°25'0 0.0
2017-Jul-16 13:01N 48°41' W 123°25'0 0.0
2017-Jul-16 12:31N 48°41' W 123°25'0 0.0
2017-Jul-16 12:00N 48°41' W 123°25'0 0.0
2017-Jul-16 11:30N 48°41' W 123°25'0 0.0
2017-Jul-16 11:00N 48°41' W 123°25'0 0.0
2017-Jul-16 10:30N 48°41' W 123°25'0 0.0
2017-Jul-16 10:00N 48°41' W 123°25'0 0.0
2017-Jul-16 09:27N 48°41' W 123°25'0 0.0
2017-Jul-16 09:00N 48°41' W 123°25'0 0.0
2017-Jul-16 08:30N 48°41' W 123°25'0 0.0
2017-Jul-16 08:00N 48°41' W 123°25'0 0.0
2017-Jul-16 07:30N 48°41' W 123°25'0 0.0
2017-Jul-16 07:00N 48°41' W 123°25'0 0.0
2017-Jul-16 06:30N 48°41' W 123°25'0 0.0
2017-Jul-16 06:00N 48°41' W 123°25'0 0.0
2017-Jul-16 05:31N 48°41' W 123°25'713.9
2017-Jul-16 05:00N 48°48' W 123°21'815.4
2017-Jul-16 04:30N 48°55' W 123°16'715.1
2017-Jul-16 04:00N 49°00' W 123°08'1 1.4
2017-Jul-16 03:30N 48°60' W 123°09'713.8
2017-Jul-16 03:00N 48°54' W 123°16'714.6
2017-Jul-16 02:31N 48°48' W 123°21'714.5
2017-Jul-16 02:01N 48°41' W 123°25'0 0.1
2017-Jul-16 01:30N 48°41' W 123°25'815.2
2017-Jul-16 01:01N 48°49' W 123°21'714.1
2017-Jul-16 00:30N 48°55' W 123°16'815.1
2017-Jul-16 00:00N 49°00' W 123°08'0 0.0
2017-Jul-15 23:30N 49°00' W 123°08'815.0
2017-Jul-15 23:00N 48°54' W 123°15'714.9
2017-Jul-15 22:30N 48°48' W 123°21'714.4
2017-Jul-15 22:00N 48°41' W 123°25'0 0.1
2017-Jul-15 21:30N 48°41' W 123°25'815.9
2017-Jul-15 21:00N 48°49' W 123°21'816.9
2017-Jul-15 20:30N 48°56' W 123°14'611.5
2017-Jul-15 20:01N 49°00' W 123°08'0 0.1
2017-Jul-15 19:30N 49°00' W 123°08'816.2
2017-Jul-15 19:01N 48°54' W 123°16'714.0
2017-Jul-15 18:30N 48°48' W 123°21'713.9
2017-Jul-15 18:00N 48°41' W 123°25'0 0.0
2017-Jul-15 17:31N 48°41' W 123°25'714.7
2017-Jul-15 17:00N 48°48' W 123°21'815.5
2017-Jul-15 16:31N 48°55' W 123°16'714.6
2017-Jul-15 16:00N 49°00' W 123°08'0 0.1
2017-Jul-15 15:30N 49°00' W 123°08'713.4
2017-Jul-15 15:00N 48°55' W 123°14'1515.4
2017-Jul-15 14:00N 48°41' W 123°25'0 0.0
2017-Jul-15 13:30N 48°41' W 123°25'0 0.0
2017-Jul-15 13:00N 48°41' W 123°25'0 0.0
2017-Jul-15 12:30N 48°41' W 123°25'0 0.0
2017-Jul-15 11:58N 48°41' W 123°25'0 0.0
2017-Jul-15 11:28N 48°41' W 123°25'0 0.0
2017-Jul-15 10:58N 48°41' W 123°25'0 0.0
2017-Jul-15 10:28N 48°41' W 123°25'0 0.0
2017-Jul-15 09:58N 48°41' W 123°25'0 0.0
2017-Jul-15 09:28N 48°41' W 123°25'0 0.0
2017-Jul-15 08:58N 48°41' W 123°25'0 0.0
2017-Jul-15 08:28N 48°41' W 123°25'0 0.0
2017-Jul-15 07:58N 48°41' W 123°25'0 0.0
2017-Jul-15 07:28N 48°41' W 123°25'0 0.0
2017-Jul-15 06:58N 48°41' W 123°25'0 0.0
2017-Jul-15 06:28N 48°41' W 123°25'0 0.0
2017-Jul-15 05:58N 48°41' W 123°25'0 0.0
2017-Jul-15 05:30N 48°41' W 123°25'714.0
2017-Jul-15 05:00N 48°48' W 123°21'815.9
2017-Jul-15 04:31N 48°55' W 123°16'714.6
2017-Jul-15 04:00N 49°00' W 123°08'0 0.1
2017-Jul-15 03:30N 49°00' W 123°08'917.4
2017-Jul-15 02:58N 48°53' W 123°17'715.6
2017-Jul-15 02:30N 48°47' W 123°21'611.2
2017-Jul-15 02:00N 48°41' W 123°25'2 3.2
2017-Jul-15 01:30N 48°42' W 123°22'918.3
2017-Jul-15 01:00N 48°51' W 123°21'714.2
2017-Jul-15 00:30N 48°56' W 123°14'611.6
2017-Jul-15 00:00N 49°00' W 123°08'0 0.0
2017-Jul-14 23:30N 49°00' W 123°08'816.6
2017-Jul-14 23:00N 48°54' W 123°16'815.1
2017-Jul-14 22:30N 48°47' W 123°21'612.5
2017-Jul-14 22:01N 48°41' W 123°25'0 0.0
2017-Jul-14 21:30N 48°41' W 123°25'814.9
2017-Jul-14 21:00N 48°48' W 123°21'916.5
2017-Jul-14 20:28N 48°56' W 123°14'612.4
2017-Jul-14 20:00N 49°00' W 123°08'0 0.1
2017-Jul-14 19:30N 49°00' W 123°08'917.4
2017-Jul-14 18:59N 48°53' W 123°17'713.7
2017-Jul-14 18:30N 48°47' W 123°21'6 5.9
2017-Jul-14 17:27N 48°41' W 123°24'916.2
2017-Jul-14 16:54N 48°50' W 123°21'615.4
2017-Jul-14 16:30N 48°55' W 123°16'714.6
2017-Jul-14 16:00N 49°00' W 123°08'0 0.0
2017-Jul-14 15:30N 49°00' W 123°08'815.1
2017-Jul-14 15:00N 48°54' W 123°15'714.8
2017-Jul-14 14:31N 48°48' W 123°21'714.2
2017-Jul-14 14:01N 48°41' W 123°25'0 0.0
2017-Jul-14 12:08N 48°41' W 123°25'0 0.0
2017-Jul-14 11:56N 48°41' W 123°25'0 0.0
2017-Jul-14 11:14N 48°41' W 123°25'0 0.0
2017-Jul-14 10:50N 48°41' W 123°25'0 0.0
2017-Jul-14 10:26N 48°41' W 123°25'0 0.0
2017-Jul-14 05:26N 48°41' W 123°25'916.0
2017-Jul-14 04:52N 48°50' W 123°21'615.1
2017-Jul-14 04:30N 48°55' W 123°16'815.6
2017-Jul-14 04:00N 49°00' W 123°08'0 0.0
2017-Jul-14 03:31N 49°00' W 123°08'916.9
2017-Jul-14 03:00N 48°54' W 123°17'916.9
2017-Jul-14 02:28N 48°45' W 123°22'4 9.6
2017-Jul-14 02:00N 48°41' W 123°25'2 3.4
2017-Jul-14 01:30N 48°42' W 123°22'917.4
2017-Jul-14 01:00N 48°50' W 123°21'612.8
2017-Jul-14 00:30N 48°56' W 123°15'713.6
2017-Jul-14 00:00N 49°00' W 123°08'0 0.1
2017-Jul-13 23:30N 49°00' W 123°08'816.6
2017-Jul-13 23:00N 48°54' W 123°16'714.3
2017-Jul-13 22:29N 48°47' W 123°21'611.9
2017-Jul-13 21:57N 48°41' W 123°25'0 0.2
2017-Jul-13 21:29N 48°41' W 123°25'816.1
2017-Jul-13 21:00N 48°49' W 123°21'815.5
2017-Jul-13 20:30N 48°56' W 123°15'713.4
2017-Jul-13 20:00N 49°00' W 123°08'0 0.1
2017-Jul-13 19:30N 49°00' W 123°08'917.1
2017-Jul-13 19:00N 48°54' W 123°16'713.4
2017-Jul-13 18:29N 48°47' W 123°21'613.6
2017-Jul-13 18:00N 48°41' W 123°25'0 0.1
2017-Jul-13 17:30N 48°41' W 123°25'714.5
2017-Jul-13 17:00N 48°48' W 123°21'815.9
2017-Jul-13 16:30N 48°55' W 123°15'714.3
2017-Jul-13 16:00N 49°00' W 123°08'0 0.1
2017-Jul-13 15:30N 49°00' W 123°08'815.5
2017-Jul-13 15:00N 48°54' W 123°16'714.1
2017-Jul-13 14:30N 48°48' W 123°21'713.8
2017-Jul-13 13:59N 48°41' W 123°25'0 0.0
2017-Jul-13 08:44N 48°41' W 123°25'0 0.0
2017-Jul-13 08:26N 48°41' W 123°25'0 0.1
2017-Jul-13 05:24N 48°41' W 123°25'615.9
2017-Jul-13 05:00N 48°47' W 123°21'817.0
2017-Jul-13 04:30N 48°55' W 123°16'815.1
2017-Jul-13 04:01N 49°00' W 123°08'0 0.0
2017-Jul-13 03:31N 49°00' W 123°08'814.5
2017-Jul-13 02:59N 48°55' W 123°15'815.6
2017-Jul-13 02:30N 48°48' W 123°21'7 7.1
2017-Jul-13 01:31N 48°41' W 123°25'0 5.5
2017-Jul-13 01:30N 48°41' W 123°24'815.8
2017-Jul-13 00:58N 48°50' W 123°21'714.2
2017-Jul-13 00:30N 48°55' W 123°16'714.2
2017-Jul-13 00:00N 49°00' W 123°08'0 0.0
2017-Jul-12 23:30N 49°00' W 123°08'714.8
2017-Jul-12 23:00N 48°55' W 123°15'816.0
2017-Jul-12 22:30N 48°48' W 123°21'713.1
2017-Jul-12 22:00N 48°41' W 123°25'0 0.0
2017-Jul-12 21:30N 48°41' W 123°25'915.6
2017-Jul-12 20:56N 48°50' W 123°21'715.2
2017-Jul-12 20:30N 48°55' W 123°15'714.1
2017-Jul-12 20:00N 49°00' W 123°08'0 0.1
2017-Jul-12 19:30N 49°00' W 123°08'816.1
2017-Jul-12 19:00N 48°54' W 123°16'713.9
2017-Jul-12 18:30N 48°48' W 123°21'7 9.8
2017-Jul-12 17:48N 48°41' W 123°25'0 0.2
2017-Jul-12 17:30N 48°41' W 123°25'713.7
2017-Jul-12 17:00N 48°48' W 123°21'816.2
2017-Jul-12 16:31N 48°55' W 123°15'714.3
2017-Jul-12 16:00N 49°00' W 123°08'0 0.2
2017-Jul-12 15:30N 49°00' W 123°08'815.7
2017-Jul-12 15:00N 48°54' W 123°16'1414.1
2017-Jul-12 14:01N 48°41' W 123°25'0 0.1
2017-Jul-12 13:31N 48°41' W 123°25'0 0.0
2017-Jul-12 12:59N 48°41' W 123°25'0 0.0
2017-Jul-12 12:29N 48°41' W 123°25'0 0.0
2017-Jul-12 11:59N 48°41' W 123°25'0 0.0
2017-Jul-12 11:29N 48°41' W 123°25'0 0.0
2017-Jul-12 10:59N 48°41' W 123°25'0 0.0
2017-Jul-12 10:29N 48°41' W 123°25'0 0.0
2017-Jul-12 09:59N 48°41' W 123°25'0 0.0
2017-Jul-12 09:29N 48°41' W 123°25'0 0.0
2017-Jul-12 08:59N 48°41' W 123°25'0 0.0
2017-Jul-12 08:29N 48°41' W 123°25'0 0.0
2017-Jul-12 07:59N 48°41' W 123°25'0 0.0
2017-Jul-12 07:26N 48°41' W 123°25'0 0.0
2017-Jul-12 06:59N 48°41' W 123°25'0 0.0
2017-Jul-12 06:29N 48°41' W 123°25'0 0.0
2017-Jul-12 05:59N 48°41' W 123°25'1 2.2
2017-Jul-12 05:31N 48°42' W 123°23'713.4
2017-Jul-12 05:01N 48°48' W 123°21'816.2
2017-Jul-12 04:31N 48°55' W 123°15'713.7
2017-Jul-12 04:00N 49°00' W 123°08'0 0.3
2017-Jul-12 03:30N 49°00' W 123°08'815.5
2017-Jul-12 02:59N 48°54' W 123°16'713.0
2017-Jul-12 02:29N 48°48' W 123°21'715.2
2017-Jul-12 01:59N 48°41' W 123°25'0 0.2
2017-Jul-12 01:30N 48°41' W 123°25'815.4
2017-Jul-12 00:59N 48°49' W 123°21'713.9
2017-Jul-12 00:30N 48°55' W 123°16'815.0
2017-Jul-12 00:00N 49°00' W 123°08'0 0.1
2017-Jul-11 23:30N 49°00' W 123°08'714.9
2017-Jul-11 23:00N 48°55' W 123°15'815.1
2017-Jul-11 22:30N 48°48' W 123°21'712.8
2017-Jul-11 21:57N 48°41' W 123°25'0 0.2
2017-Jul-11 21:30N 48°41' W 123°25'815.4
2017-Jul-11 21:01N 48°49' W 123°21'814.9
2017-Jul-11 20:30N 48°55' W 123°16'714.4
2017-Jul-11 20:00N 49°00' W 123°08'0 0.1
2017-Jul-11 19:30N 49°00' W 123°08'816.3
2017-Jul-11 19:00N 48°54' W 123°16'713.9
2017-Jul-11 18:30N 48°48' W 123°21'713.6
2017-Jul-11 18:00N 48°41' W 123°25'0 0.0
2017-Jul-11 17:29N 48°41' W 123°25'714.6
2017-Jul-11 16:59N 48°48' W 123°20'816.5
2017-Jul-11 16:30N 48°55' W 123°15'713.6
2017-Jul-11 16:00N 49°00' W 123°08'0 0.2
2017-Jul-11 15:30N 49°00' W 123°08'816.3
2017-Jul-11 15:00N 48°54' W 123°16'713.4
2017-Jul-11 14:30N 48°48' W 123°21'710.5
2017-Jul-11 13:50N 48°41' W 123°25'0 0.0
2017-Jul-11 05:22N 48°41' W 123°24'917.0
2017-Jul-11 04:50N 48°50' W 123°21'617.5
2017-Jul-11 04:30N 48°55' W 123°16'715.0
2017-Jul-11 04:00N 49°00' W 123°08'0 0.2
2017-Jul-11 03:30N 49°00' W 123°08'816.2
2017-Jul-11 03:00N 48°54' W 123°16'713.9
2017-Jul-11 02:28N 48°47' W 123°21'  

Dump ship's entire track history